Meteo Giornale » Osservazioni meteo Kyrgyzstan » Osh
ore: 00:00 - Osservazioni Meteo Osh
Lat. 40° 37' N Lon. 72° 48' E Alt. 892 metri s.l.m.
22 °C
Poco Nuvoloso
Temp. 24 Ore
20 °C
35 °C
Nord
7.2 Km/h
Dew point 13 °C
Umidità 56 %
Visibilità 8 Km
Il sole sorge alle ore 06:35
Il sole tramonta alle ore 19:41
| Data e Ora | Cielo e Fenomeni | T °C | DP °C | Um. % | Pres. hPa | Vis. km | Vento km/h | |
|---|---|---|---|---|---|---|---|---|
| Oggi h: 00:00 | Poco Nuvoloso | 22 | 13 | 56 | 1013 | 8 | N 7.2 | |
| Ieri h: 23:30 | Poco Nuvoloso | 22 | 14 | 60 | 1013 | 7 | N 7.2 | |
| Ieri h: 23:00 | Poco Nuvoloso | 22 | 14 | 60 | 1013 | 6 | N 7.2 | |
| Ieri h: 22:30 | Poco Nuvoloso | 23 | 14 | 56 | 1012 | 9 | N 0 | |
| Ieri h: 22:00 | Poco Nuvoloso | 23 | 15 | 60 | 1013 | 7 | N 3.6 | |
| Ieri h: 21:30 | Poco Nuvoloso | 23 | 13 | 53 | 1012 | 9 | N 3.6 | |
| Ieri h: 21:00 | Poco Nuvoloso | 25 | 14 | 50 | 1012 | 9 | N 0 | |
| Ieri h: 20:30 | Poco Nuvoloso | 27 | 13 | 42 | 1011 | 9 | N 7.2 | |
| Ieri h: 20:00 | Poco Nuvoloso | 27 | 13 | 42 | 1011 | 10 | O 10.8 | |
| Ieri h: 19:30 | Poco Nuvoloso | 29 | 13 | 37 | 1010 | 10 | O 10.8 | |
| Ieri h: 19:00 | Poco Nuvoloso | 30 | 13 | 35 | 1010 | 10 | O 14.4 | |
| Ieri h: 18:30 | Poco Nuvoloso | 32 | 14 | 33 | 1010 | 10 | O 18 | |
| Ieri h: 18:00 | Poco Nuvoloso | 33 | 12 | 27 | 1010 | 10 | O 18 | |
| Ieri h: 17:30 | Poco Nuvoloso | 34 | 11 | 24 | 1010 | 10 | O 21.6 | |
| Ieri h: 17:00 | Poco Nuvoloso | 34 | 10 | 23 | 1010 | 10 | O 18 | |
| Ieri h: 16:30 | Poco Nuvoloso | 34 | 10 | 23 | 1010 | 10 | O 18 | |
| Ieri h: 16:00 | Poco Nuvoloso | 35 | 9 | 20 | 1010 | 10 | O 21.6 | |
| Ieri h: 15:30 | Poco Nuvoloso | 35 | 8 | 19 | 1010 | 10 | O 18 | |
| Ieri h: 15:00 | Poco Nuvoloso | 34 | 9 | 21 | 1010 | 10 | O 18 | |
| Ieri h: 14:30 | Poco Nuvoloso | 34 | 11 | 24 | 1011 | 10 | O/NO 14.4 | |
| Ieri h: 14:00 | Poco Nuvoloso | 34 | 12 | 26 | 1011 | 10 | O/NO 10.8 | |
| Ieri h: 13:30 | Poco Nuvoloso | 33 | 13 | 29 | 1011 | 10 | O/NO 14.4 | |
| Ieri h: 13:00 | Poco Nuvoloso | 33 | 11 | 26 | 1011 | 10 | O/NO 14.4 | |
| Ieri h: 12:30 | Poco Nuvoloso | 32 | 15 | 35 | 1012 | 10 | O/NO 10.8 | |
| Ieri h: 12:00 | Poco Nuvoloso | 31 | 15 | 37 | 1012 | 10 | NO 10.8 | |
| Ieri h: 11:30 | Poco Nuvoloso | 31 | 13 | 33 | 1012 | 10 | NO 10.8 | |
| Ieri h: 11:00 | Sereno | 31 | 14 | 35 | 1012 | 10 | N 10.8 | |
| Ieri h: 10:30 | Sereno | 31 | 11 | 29 | 1012 | 10 | N 7.2 | |
| Ieri h: 10:00 | Sereno | 30 | 12 | 33 | 1012 | 10 | N 3.6 | |
| Ieri h: 09:30 | Sereno | 30 | 11 | 30 | 1012 | 9 | N 3.6 | |
| Ieri h: 09:00 | Sereno | 27 | 13 | 42 | 1012 | 9 | N 3.6 | |
| Ieri h: 08:30 | Sereno | 25 | 12 | 44 | 1012 | 10 | N 7.2 | |
| Ieri h: 08:00 | Sereno | 25 | 11 | 41 | 1012 | 10 | N 7.2 | |
| Ieri h: 07:30 | Sereno | 22 | 10 | 46 | 1012 | 10 | N 7.2 | |
| Ieri h: 07:00 | Sereno | 21 | 9 | 46 | 1012 | 10 | N 7.2 | |
| Ieri h: 06:30 | Sereno | 24 | 7 | 33 | 1011 | 10 | S 10.8 | |
| Ieri h: 06:00 | Sereno | 24 | 8 | 35 | 1011 | 10 | S 10.8 | |
| Ieri h: 05:30 | Sereno | 24 | 9 | 38 | 1011 | 10 | S/SO 10.8 | |
| Ieri h: 05:00 | Sereno | 24 | 9 | 38 | 1011 | 10 | S/SO 10.8 | |
| Ieri h: 04:30 | Sereno | 22 | 10 | 46 | 1011 | 10 | N 7.2 | |
| Ieri h: 04:00 | Sereno | 25 | 9 | 36 | 1011 | 10 | S 14.4 | |
| Ieri h: 03:30 | Sereno | 25 | 9 | 36 | 1011 | 10 | S 18 | |
| Ieri h: 03:00 | Sereno | 25 | 9 | 36 | 1011 | 10 | S 18 | |
| Ieri h: 02:30 | Sereno | 24 | 10 | 41 | 1011 | 10 | S 14.4 | |
| Ieri h: 02:00 | Foschia | 22 | 11 | 49 | 1011 | 4 | SE 10.8 | |
| Ieri h: 01:30 | Sereno | 21 | 12 | 56 | 1011 | 6 | N 7.2 | |
| Ieri h: 01:00 | Sereno | 20 | 13 | 64 | 1012 | 7 | N 3.6 | |



